sensor_id;sensor_type;location;lat;lon;timestamp;P1;durP1;ratioP1;P2;durP2;ratioP2
7181;SDS011;3632;42.724;23.298;2023-04-01T00:02:24;20.93;;;14.90;;
7181;SDS011;3632;42.724;23.298;2023-04-01T00:04:53;21.57;;;14.93;;
7181;SDS011;3632;42.724;23.298;2023-04-01T00:07:20;26.93;;;15.00;;
7181;SDS011;3632;42.724;23.298;2023-04-01T00:09:47;22.63;;;14.67;;
7181;SDS011;3632;42.724;23.298;2023-04-01T00:12:14;23.07;;;14.60;;
7181;SDS011;3632;42.724;23.298;2023-04-01T00:14:41;21.27;;;14.30;;
7181;SDS011;3632;42.724;23.298;2023-04-01T00:17:08;20.80;;;13.90;;
7181;SDS011;3632;42.724;23.298;2023-04-01T00:19:35;22.70;;;14.13;;
7181;SDS011;3632;42.724;23.298;2023-04-01T00:22:04;21.40;;;13.53;;
7181;SDS011;3632;42.724;23.298;2023-04-01T00:24:31;18.77;;;12.63;;
7181;SDS011;3632;42.724;23.298;2023-04-01T00:26:58;25.13;;;13.17;;
7181;SDS011;3632;42.724;23.298;2023-04-01T00:29:25;23.53;;;12.80;;
7181;SDS011;3632;42.724;23.298;2023-04-01T00:31:55;22.50;;;12.63;;
7181;SDS011;3632;42.724;23.298;2023-04-01T00:34:22;18.50;;;12.73;;
7181;SDS011;3632;42.724;23.298;2023-04-01T00:36:49;23.90;;;12.80;;
7181;SDS011;3632;42.724;23.298;2023-04-01T00:39:18;20.60;;;12.43;;
7181;SDS011;3632;42.724;23.298;2023-04-01T00:41:45;22.37;;;13.00;;
7181;SDS011;3632;42.724;23.298;2023-04-01T00:44:17;24.00;;;11.90;;
7181;SDS011;3632;42.724;23.298;2023-04-01T00:46:46;20.67;;;12.70;;
7181;SDS011;3632;42.724;23.298;2023-04-01T00:49:13;24.00;;;12.03;;
7181;SDS011;3632;42.724;23.298;2023-04-01T00:51:40;19.47;;;11.57;;
7181;SDS011;3632;42.724;23.298;2023-04-01T00:54:08;18.20;;;11.17;;
7181;SDS011;3632;42.724;23.298;2023-04-01T00:56:38;18.93;;;11.70;;
7181;SDS011;3632;42.724;23.298;2023-04-01T00:59:10;16.67;;;10.73;;
7181;SDS011;3632;42.724;23.298;2023-04-01T01:01:39;16.87;;;10.70;;
7181;SDS011;3632;42.724;23.298;2023-04-01T01:04:06;16.00;;;10.50;;
7181;SDS011;3632;42.724;23.298;2023-04-01T01:06:39;14.97;;;10.57;;
7181;SDS011;3632;42.724;23.298;2023-04-01T01:09:14;17.57;;;10.23;;
7181;SDS011;3632;42.724;23.298;2023-04-01T01:11:54;16.33;;;10.10;;
7181;SDS011;3632;42.724;23.298;2023-04-01T01:14:34;15.93;;;10.90;;
7181;SDS011;3632;42.724;23.298;2023-04-01T01:17:11;18.17;;;10.33;;
7181;SDS011;3632;42.724;23.298;2023-04-01T01:19:49;20.53;;;11.33;;
7181;SDS011;3632;42.724;23.298;2023-04-01T01:22:36;16.53;;;10.53;;
7181;SDS011;3632;42.724;23.298;2023-04-01T01:25:23;14.37;;;9.47;;
7181;SDS011;3632;42.724;23.298;2023-04-01T01:28:02;16.10;;;10.63;;
7181;SDS011;3632;42.724;23.298;2023-04-01T01:34:12;19.30;;;10.60;;
7181;SDS011;3632;42.724;23.298;2023-04-01T01:36:48;25.57;;;10.70;;
7181;SDS011;3632;42.724;23.298;2023-04-01T01:39:20;16.50;;;10.20;;
7181;SDS011;3632;42.724;23.298;2023-04-01T01:41:52;19.90;;;11.00;;
7181;SDS011;3632;42.724;23.298;2023-04-01T01:44:22;19.90;;;10.10;;
7181;SDS011;3632;42.724;23.298;2023-04-01T01:46:50;17.67;;;10.27;;
7181;SDS011;3632;42.724;23.298;2023-04-01T01:49:17;20.97;;;10.27;;
7181;SDS011;3632;42.724;23.298;2023-04-01T01:51:45;19.47;;;10.33;;
7181;SDS011;3632;42.724;23.298;2023-04-01T01:54:14;15.93;;;9.80;;
7181;SDS011;3632;42.724;23.298;2023-04-01T01:56:42;16.33;;;9.50;;
7181;SDS011;3632;42.724;23.298;2023-04-01T01:59:12;17.97;;;10.07;;
7181;SDS011;3632;42.724;23.298;2023-04-01T02:01:43;17.97;;;9.60;;
7181;SDS011;3632;42.724;23.298;2023-04-01T02:04:13;19.30;;;10.23;;
7181;SDS011;3632;42.724;23.298;2023-04-01T02:06:42;20.63;;;10.73;;
7181;SDS011;3632;42.724;23.298;2023-04-01T02:09:15;23.93;;;10.80;;
7181;SDS011;3632;42.724;23.298;2023-04-01T02:11:43;25.03;;;10.90;;
7181;SDS011;3632;42.724;23.298;2023-04-01T02:14:16;29.13;;;12.30;;
7181;SDS011;3632;42.724;23.298;2023-04-01T02:16:47;26.40;;;14.13;;
7181;SDS011;3632;42.724;23.298;2023-04-01T02:19:17;25.17;;;13.23;;
7181;SDS011;3632;42.724;23.298;2023-04-01T02:21:48;25.50;;;12.33;;
7181;SDS011;3632;42.724;23.298;2023-04-01T02:24:18;20.33;;;13.37;;
7181;SDS011;3632;42.724;23.298;2023-04-01T02:26:49;19.70;;;11.90;;
7181;SDS011;3632;42.724;23.298;2023-04-01T02:29:17;23.10;;;12.27;;
7181;SDS011;3632;42.724;23.298;2023-04-01T02:31:45;28.33;;;13.03;;
7181;SDS011;3632;42.724;23.298;2023-04-01T02:34:13;23.17;;;13.17;;
7181;SDS011;3632;42.724;23.298;2023-04-01T02:36:40;21.97;;;12.77;;
7181;SDS011;3632;42.724;23.298;2023-04-01T02:39:07;21.53;;;12.57;;
7181;SDS011;3632;42.724;23.298;2023-04-01T02:41:39;23.57;;;12.20;;
7181;SDS011;3632;42.724;23.298;2023-04-01T02:44:06;17.13;;;10.77;;
7181;SDS011;3632;42.724;23.298;2023-04-01T02:46:34;19.10;;;11.13;;
7181;SDS011;3632;42.724;23.298;2023-04-01T02:49:01;21.10;;;11.03;;
7181;SDS011;3632;42.724;23.298;2023-04-01T02:51:28;19.37;;;11.07;;
7181;SDS011;3632;42.724;23.298;2023-04-01T02:53:54;17.83;;;12.17;;
7181;SDS011;3632;42.724;23.298;2023-04-01T02:56:21;17.20;;;11.03;;
7181;SDS011;3632;42.724;23.298;2023-04-01T02:58:49;20.30;;;12.33;;
7181;SDS011;3632;42.724;23.298;2023-04-01T03:01:16;18.47;;;11.77;;
7181;SDS011;3632;42.724;23.298;2023-04-01T03:03:43;20.87;;;13.90;;
7181;SDS011;3632;42.724;23.298;2023-04-01T03:06:10;23.07;;;12.93;;
7181;SDS011;3632;42.724;23.298;2023-04-01T03:08:38;18.30;;;11.63;;
7181;SDS011;3632;42.724;23.298;2023-04-01T03:11:05;21.47;;;13.83;;
7181;SDS011;3632;42.724;23.298;2023-04-01T03:13:32;15.33;;;11.13;;
7181;SDS011;3632;42.724;23.298;2023-04-01T03:16:00;19.53;;;11.23;;
7181;SDS011;3632;42.724;23.298;2023-04-01T03:18:27;18.40;;;11.00;;
7181;SDS011;3632;42.724;23.298;2023-04-01T03:20:54;14.27;;;11.43;;
7181;SDS011;3632;42.724;23.298;2023-04-01T03:23:21;16.03;;;9.60;;
7181;SDS011;3632;42.724;23.298;2023-04-01T03:25:49;15.90;;;9.70;;
7181;SDS011;3632;42.724;23.298;2023-04-01T03:28:16;13.80;;;9.43;;
7181;SDS011;3632;42.724;23.298;2023-04-01T03:30:43;14.43;;;9.53;;
7181;SDS011;3632;42.724;23.298;2023-04-01T03:33:11;14.50;;;9.33;;
7181;SDS011;3632;42.724;23.298;2023-04-01T03:35:38;16.63;;;9.70;;
7181;SDS011;3632;42.724;23.298;2023-04-01T03:38:04;15.87;;;9.73;;
7181;SDS011;3632;42.724;23.298;2023-04-01T03:40:31;17.27;;;10.30;;
7181;SDS011;3632;42.724;23.298;2023-04-01T03:43:02;15.90;;;10.07;;
7181;SDS011;3632;42.724;23.298;2023-04-01T03:45:33;17.50;;;10.50;;
7181;SDS011;3632;42.724;23.298;2023-04-01T03:48:00;17.67;;;10.37;;
7181;SDS011;3632;42.724;23.298;2023-04-01T03:50:28;14.07;;;10.50;;
7181;SDS011;3632;42.724;23.298;2023-04-01T03:52:55;15.63;;;9.97;;
7181;SDS011;3632;42.724;23.298;2023-04-01T03:55:21;17.90;;;12.00;;
7181;SDS011;3632;42.724;23.298;2023-04-01T03:57:48;16.63;;;10.00;;
7181;SDS011;3632;42.724;23.298;2023-04-01T04:00:15;15.30;;;9.73;;
7181;SDS011;3632;42.724;23.298;2023-04-01T04:02:42;17.30;;;10.70;;
7181;SDS011;3632;42.724;23.298;2023-04-01T04:05:09;16.87;;;10.40;;
7181;SDS011;3632;42.724;23.298;2023-04-01T04:07:37;15.77;;;10.60;;
7181;SDS011;3632;42.724;23.298;2023-04-01T04:10:05;14.67;;;10.00;;
7181;SDS011;3632;42.724;23.298;2023-04-01T04:12:32;14.77;;;9.93;;
7181;SDS011;3632;42.724;23.298;2023-04-01T04:14:59;16.20;;;9.97;;
7181;SDS011;3632;42.724;23.298;2023-04-01T04:17:26;15.27;;;9.70;;
7181;SDS011;3632;42.724;23.298;2023-04-01T04:19:52;16.23;;;10.60;;
7181;SDS011;3632;42.724;23.298;2023-04-01T04:22:19;14.57;;;8.83;;
7181;SDS011;3632;42.724;23.298;2023-04-01T04:24:47;13.53;;;8.27;;
7181;SDS011;3632;42.724;23.298;2023-04-01T04:27:14;11.50;;;8.10;;
7181;SDS011;3632;42.724;23.298;2023-04-01T04:29:41;10.50;;;7.47;;
7181;SDS011;3632;42.724;23.298;2023-04-01T04:32:08;12.90;;;8.60;;
7181;SDS011;3632;42.724;23.298;2023-04-01T04:34:34;11.67;;;7.57;;
7181;SDS011;3632;42.724;23.298;2023-04-01T04:37:01;14.20;;;9.20;;
7181;SDS011;3632;42.724;23.298;2023-04-01T04:39:28;15.73;;;9.20;;
7181;SDS011;3632;42.724;23.298;2023-04-01T04:41:56;10.40;;;8.23;;
7181;SDS011;3632;42.724;23.298;2023-04-01T04:44:23;12.40;;;8.10;;
7181;SDS011;3632;42.724;23.298;2023-04-01T04:46:50;13.57;;;8.67;;
7181;SDS011;3632;42.724;23.298;2023-04-01T04:49:17;14.70;;;8.53;;
7181;SDS011;3632;42.724;23.298;2023-04-01T04:51:44;14.90;;;8.70;;
7181;SDS011;3632;42.724;23.298;2023-04-01T04:54:10;14.57;;;7.73;;
7181;SDS011;3632;42.724;23.298;2023-04-01T04:56:37;12.37;;;7.80;;
7181;SDS011;3632;42.724;23.298;2023-04-01T04:59:05;12.27;;;7.10;;
7181;SDS011;3632;42.724;23.298;2023-04-01T05:01:32;16.90;;;8.60;;
7181;SDS011;3632;42.724;23.298;2023-04-01T05:03:59;11.73;;;8.23;;
7181;SDS011;3632;42.724;23.298;2023-04-01T05:06:26;15.03;;;7.80;;
7181;SDS011;3632;42.724;23.298;2023-04-01T05:08:54;23.20;;;8.40;;
7181;SDS011;3632;42.724;23.298;2023-04-01T05:11:22;20.83;;;9.10;;
7181;SDS011;3632;42.724;23.298;2023-04-01T05:13:50;20.60;;;8.63;;
7181;SDS011;3632;42.724;23.298;2023-04-01T05:16:19;21.77;;;8.73;;
7181;SDS011;3632;42.724;23.298;2023-04-01T05:18:46;18.13;;;8.50;;
7181;SDS011;3632;42.724;23.298;2023-04-01T05:21:14;19.60;;;8.00;;
7181;SDS011;3632;42.724;23.298;2023-04-01T05:23:41;17.43;;;8.50;;
7181;SDS011;3632;42.724;23.298;2023-04-01T05:26:09;16.17;;;9.80;;
7181;SDS011;3632;42.724;23.298;2023-04-01T05:28:37;20.03;;;10.10;;
7181;SDS011;3632;42.724;23.298;2023-04-01T05:31:05;18.20;;;9.60;;
7181;SDS011;3632;42.724;23.298;2023-04-01T05:33:34;13.37;;;8.33;;
7181;SDS011;3632;42.724;23.298;2023-04-01T05:36:08;13.10;;;7.57;;
7181;SDS011;3632;42.724;23.298;2023-04-01T05:38:37;15.27;;;8.50;;
7181;SDS011;3632;42.724;23.298;2023-04-01T05:41:04;19.33;;;10.10;;
7181;SDS011;3632;42.724;23.298;2023-04-01T05:43:30;35.03;;;19.97;;
7181;SDS011;3632;42.724;23.298;2023-04-01T05:45:57;56.00;;;29.80;;
7181;SDS011;3632;42.724;23.298;2023-04-01T05:48:24;33.10;;;20.00;;
7181;SDS011;3632;42.724;23.298;2023-04-01T05:50:53;41.37;;;25.03;;
7181;SDS011;3632;42.724;23.298;2023-04-01T05:53:19;50.20;;;29.33;;
7181;SDS011;3632;42.724;23.298;2023-04-01T05:55:47;22.03;;;14.63;;
7181;SDS011;3632;42.724;23.298;2023-04-01T05:58:14;16.53;;;9.13;;
7181;SDS011;3632;42.724;23.298;2023-04-01T06:00:41;16.50;;;8.77;;
7181;SDS011;3632;42.724;23.298;2023-04-01T06:03:08;17.00;;;9.10;;
7181;SDS011;3632;42.724;23.298;2023-04-01T06:05:37;18.90;;;7.87;;
7181;SDS011;3632;42.724;23.298;2023-04-01T06:08:11;14.20;;;7.17;;
7181;SDS011;3632;42.724;23.298;2023-04-01T06:10:44;20.77;;;7.17;;
7181;SDS011;3632;42.724;23.298;2023-04-01T06:13:24;10.47;;;5.87;;
7181;SDS011;3632;42.724;23.298;2023-04-01T06:16:01;10.13;;;5.40;;
7181;SDS011;3632;42.724;23.298;2023-04-01T06:21:52;11.60;;;6.57;;
7181;SDS011;3632;42.724;23.298;2023-04-01T06:24:40;11.10;;;6.27;;
7181;SDS011;3632;42.724;23.298;2023-04-01T06:27:21;15.80;;;6.53;;
7181;SDS011;3632;42.724;23.298;2023-04-01T06:30:07;12.30;;;6.80;;
7181;SDS011;3632;42.724;23.298;2023-04-01T06:39:12;14.63;;;7.53;;
7181;SDS011;3632;42.724;23.298;2023-04-01T06:44:54;10.13;;;5.43;;
7181;SDS011;3632;42.724;23.298;2023-04-01T06:47:34;12.97;;;5.73;;
7181;SDS011;3632;42.724;23.298;2023-04-01T06:50:13;11.47;;;4.97;;
7181;SDS011;3632;42.724;23.298;2023-04-01T06:52:49;10.50;;;5.07;;
7181;SDS011;3632;42.724;23.298;2023-04-01T06:55:26;12.73;;;5.60;;
7181;SDS011;3632;42.724;23.298;2023-04-01T06:57:59;8.57;;;4.70;;
7181;SDS011;3632;42.724;23.298;2023-04-01T07:00:31;9.77;;;5.27;;
7181;SDS011;3632;42.724;23.298;2023-04-01T07:03:03;14.30;;;9.30;;
7181;SDS011;3632;42.724;23.298;2023-04-01T07:05:37;10.23;;;6.47;;
7181;SDS011;3632;42.724;23.298;2023-04-01T07:08:06;11.13;;;6.07;;
7181;SDS011;3632;42.724;23.298;2023-04-01T07:10:40;13.37;;;6.37;;
7181;SDS011;3632;42.724;23.298;2023-04-01T07:13:15;13.23;;;5.67;;
7181;SDS011;3632;42.724;23.298;2023-04-01T07:15:49;15.43;;;6.37;;
7181;SDS011;3632;42.724;23.298;2023-04-01T07:18:23;14.60;;;5.13;;
7181;SDS011;3632;42.724;23.298;2023-04-01T07:20:59;12.07;;;5.80;;
7181;SDS011;3632;42.724;23.298;2023-04-01T07:23:28;10.70;;;5.60;;
7181;SDS011;3632;42.724;23.298;2023-04-01T07:26:03;8.53;;;4.90;;
7181;SDS011;3632;42.724;23.298;2023-04-01T07:28:39;11.67;;;6.00;;
7181;SDS011;3632;42.724;23.298;2023-04-01T07:31:08;9.50;;;5.73;;
7181;SDS011;3632;42.724;23.298;2023-04-01T07:33:43;12.93;;;7.00;;
7181;SDS011;3632;42.724;23.298;2023-04-01T07:36:18;13.10;;;5.60;;
7181;SDS011;3632;42.724;23.298;2023-04-01T07:38:52;11.73;;;5.40;;
7181;SDS011;3632;42.724;23.298;2023-04-01T07:41:32;15.20;;;5.73;;
7181;SDS011;3632;42.724;23.298;2023-04-01T07:44:10;8.77;;;5.67;;
7181;SDS011;3632;42.724;23.298;2023-04-01T07:46:51;11.83;;;6.13;;
7181;SDS011;3632;42.724;23.298;2023-04-01T07:49:26;8.93;;;5.60;;
7181;SDS011;3632;42.724;23.298;2023-04-01T07:51:59;11.23;;;6.30;;
7181;SDS011;3632;42.724;23.298;2023-04-01T07:54:32;7.90;;;5.53;;
7181;SDS011;3632;42.724;23.298;2023-04-01T07:57:07;10.20;;;6.20;;
7181;SDS011;3632;42.724;23.298;2023-04-01T07:59:42;7.30;;;4.90;;
7181;SDS011;3632;42.724;23.298;2023-04-01T08:02:21;12.90;;;6.23;;
7181;SDS011;3632;42.724;23.298;2023-04-01T08:05:00;10.80;;;4.73;;
7181;SDS011;3632;42.724;23.298;2023-04-01T08:07:34;10.37;;;5.23;;
7181;SDS011;3632;42.724;23.298;2023-04-01T08:10:09;8.47;;;4.60;;
7181;SDS011;3632;42.724;23.298;2023-04-01T08:12:42;11.97;;;5.10;;
7181;SDS011;3632;42.724;23.298;2023-04-01T08:15:21;8.77;;;4.83;;
7181;SDS011;3632;42.724;23.298;2023-04-01T08:20:41;10.23;;;4.60;;
7181;SDS011;3632;42.724;23.298;2023-04-01T08:23:15;12.20;;;6.17;;
7181;SDS011;3632;42.724;23.298;2023-04-01T08:25:46;12.07;;;5.70;;
7181;SDS011;3632;42.724;23.298;2023-04-01T08:28:19;10.37;;;5.00;;
7181;SDS011;3632;42.724;23.298;2023-04-01T08:30:51;9.50;;;4.40;;
7181;SDS011;3632;42.724;23.298;2023-04-01T08:33:22;9.83;;;4.50;;
7181;SDS011;3632;42.724;23.298;2023-04-01T08:35:53;10.60;;;4.53;;
7181;SDS011;3632;42.724;23.298;2023-04-01T08:38:24;6.83;;;4.50;;
7181;SDS011;3632;42.724;23.298;2023-04-01T08:41:01;7.83;;;4.00;;
7181;SDS011;3632;42.724;23.298;2023-04-01T08:43:40;6.50;;;4.27;;
7181;SDS011;3632;42.724;23.298;2023-04-01T08:49:38;10.83;;;4.53;;
7181;SDS011;3632;42.724;23.298;2023-04-01T08:52:23;8.27;;;3.67;;
7181;SDS011;3632;42.724;23.298;2023-04-01T08:57:56;9.17;;;4.17;;
7181;SDS011;3632;42.724;23.298;2023-04-01T09:00:36;10.03;;;3.90;;
7181;SDS011;3632;42.724;23.298;2023-04-01T09:03:22;7.37;;;3.70;;
7181;SDS011;3632;42.724;23.298;2023-04-01T09:06:12;8.83;;;3.87;;
7181;SDS011;3632;42.724;23.298;2023-04-01T09:12:19;6.67;;;4.40;;
7181;SDS011;3632;42.724;23.298;2023-04-01T09:24:36;9.67;;;4.70;;
7181;SDS011;3632;42.724;23.298;2023-04-01T09:27:14;9.63;;;4.00;;
7181;SDS011;3632;42.724;23.298;2023-04-01T09:33:05;13.63;;;5.37;;
7181;SDS011;3632;42.724;23.298;2023-04-01T09:36:02;8.83;;;3.70;;
7181;SDS011;3632;42.724;23.298;2023-04-01T09:38:38;8.30;;;3.77;;
7181;SDS011;3632;42.724;23.298;2023-04-01T09:41:21;7.43;;;3.97;;
7181;SDS011;3632;42.724;23.298;2023-04-01T09:43:58;7.57;;;4.00;;
7181;SDS011;3632;42.724;23.298;2023-04-01T09:46:31;8.27;;;4.47;;
7181;SDS011;3632;42.724;23.298;2023-04-01T09:49:14;6.73;;;3.50;;
7181;SDS011;3632;42.724;23.298;2023-04-01T09:52:03;7.77;;;3.50;;
7181;SDS011;3632;42.724;23.298;2023-04-01T10:00:51;17.87;;;10.57;;
7181;SDS011;3632;42.724;23.298;2023-04-01T10:03:43;13.17;;;7.60;;
7181;SDS011;3632;42.724;23.298;2023-04-01T10:06:49;7.73;;;5.63;;
7181;SDS011;3632;42.724;23.298;2023-04-01T10:16:10;7.87;;;3.50;;
7181;SDS011;3632;42.724;23.298;2023-04-01T10:18:56;579.17;;;35.70;;
7181;SDS011;3632;42.724;23.298;2023-04-01T10:21:49;23.90;;;4.40;;
7181;SDS011;3632;42.724;23.298;2023-04-01T10:27:38;21.03;;;4.83;;
7181;SDS011;3632;42.724;23.298;2023-04-01T10:36:48;10.23;;;4.07;;
7181;SDS011;3632;42.724;23.298;2023-04-01T10:39:33;11.63;;;4.00;;
7181;SDS011;3632;42.724;23.298;2023-04-01T10:42:11;9.27;;;4.00;;
7181;SDS011;3632;42.724;23.298;2023-04-01T10:45:13;7.67;;;4.50;;
7181;SDS011;3632;42.724;23.298;2023-04-01T10:48:13;8.10;;;3.67;;
7181;SDS011;3632;42.724;23.298;2023-04-01T10:51:02;12.97;;;4.53;;
7181;SDS011;3632;42.724;23.298;2023-04-01T10:53:39;9.40;;;3.70;;
7181;SDS011;3632;42.724;23.298;2023-04-01T11:05:54;10.10;;;5.97;;
7181;SDS011;3632;42.724;23.298;2023-04-01T11:08:54;10.43;;;5.80;;
7181;SDS011;3632;42.724;23.298;2023-04-01T11:11:57;11.73;;;6.40;;
7181;SDS011;3632;42.724;23.298;2023-04-01T11:21:18;10.37;;;3.27;;
7181;SDS011;3632;42.724;23.298;2023-04-01T11:24:16;10.10;;;6.80;;
7181;SDS011;3632;42.724;23.298;2023-04-01T11:26:55;8.97;;;4.27;;
7181;SDS011;3632;42.724;23.298;2023-04-01T11:29:34;10.03;;;4.20;;
7181;SDS011;3632;42.724;23.298;2023-04-01T11:32:25;10.23;;;5.47;;
7181;SDS011;3632;42.724;23.298;2023-04-01T11:35:12;16.00;;;6.67;;
7181;SDS011;3632;42.724;23.298;2023-04-01T11:37:53;9.20;;;4.83;;
7181;SDS011;3632;42.724;23.298;2023-04-01T11:40:28;13.50;;;3.90;;
7181;SDS011;3632;42.724;23.298;2023-04-01T11:43:02;6.03;;;2.57;;
7181;SDS011;3632;42.724;23.298;2023-04-01T11:45:39;8.37;;;2.90;;
7181;SDS011;3632;42.724;23.298;2023-04-01T11:48:24;8.60;;;2.93;;
7181;SDS011;3632;42.724;23.298;2023-04-01T11:51:10;7.53;;;2.80;;
7181;SDS011;3632;42.724;23.298;2023-04-01T11:53:47;4.30;;;2.93;;
7181;SDS011;3632;42.724;23.298;2023-04-01T11:59:35;8.37;;;3.03;;
7181;SDS011;3632;42.724;23.298;2023-04-01T12:02:22;6.43;;;3.00;;
7181;SDS011;3632;42.724;23.298;2023-04-01T12:05:04;9.07;;;3.37;;
7181;SDS011;3632;42.724;23.298;2023-04-01T12:07:56;8.27;;;4.20;;
7181;SDS011;3632;42.724;23.298;2023-04-01T12:10:33;8.47;;;3.07;;
7181;SDS011;3632;42.724;23.298;2023-04-01T12:13:09;7.07;;;3.80;;
7181;SDS011;3632;42.724;23.298;2023-04-01T12:15:50;7.37;;;3.50;;
7181;SDS011;3632;42.724;23.298;2023-04-01T12:18:28;5.43;;;2.90;;
7181;SDS011;3632;42.724;23.298;2023-04-01T12:21:04;6.80;;;3.10;;
7181;SDS011;3632;42.724;23.298;2023-04-01T12:27:11;5.27;;;3.13;;
7181;SDS011;3632;42.724;23.298;2023-04-01T12:36:26;5.53;;;3.30;;
7181;SDS011;3632;42.724;23.298;2023-04-01T12:41:59;6.57;;;3.20;;
7181;SDS011;3632;42.724;23.298;2023-04-01T12:44:36;5.63;;;3.53;;
7181;SDS011;3632;42.724;23.298;2023-04-01T12:50:25;6.23;;;3.80;;
7181;SDS011;3632;42.724;23.298;2023-04-01T12:53:03;7.13;;;3.93;;
7181;SDS011;3632;42.724;23.298;2023-04-01T12:55:42;6.47;;;3.53;;
7181;SDS011;3632;42.724;23.298;2023-04-01T12:58:15;9.30;;;3.40;;
7181;SDS011;3632;42.724;23.298;2023-04-01T13:01:09;6.03;;;2.87;;
7181;SDS011;3632;42.724;23.298;2023-04-01T13:03:53;6.83;;;3.27;;
7181;SDS011;3632;42.724;23.298;2023-04-01T13:06:43;4.17;;;3.30;;
7181;SDS011;3632;42.724;23.298;2023-04-01T13:09:25;8.40;;;4.10;;
7181;SDS011;3632;42.724;23.298;2023-04-01T13:12:15;6.37;;;3.93;;
7181;SDS011;3632;42.724;23.298;2023-04-01T13:15:04;9.00;;;4.27;;
7181;SDS011;3632;42.724;23.298;2023-04-01T13:17:48;7.47;;;4.10;;
7181;SDS011;3632;42.724;23.298;2023-04-01T13:20:23;7.37;;;3.50;;
7181;SDS011;3632;42.724;23.298;2023-04-01T13:23:04;6.00;;;3.07;;
7181;SDS011;3632;42.724;23.298;2023-04-01T13:25:38;7.17;;;2.87;;
7181;SDS011;3632;42.724;23.298;2023-04-01T13:28:12;7.83;;;2.90;;
7181;SDS011;3632;42.724;23.298;2023-04-01T13:30:48;4.20;;;3.37;;
7181;SDS011;3632;42.724;23.298;2023-04-01T13:33:25;5.63;;;3.40;;
7181;SDS011;3632;42.724;23.298;2023-04-01T13:36:05;8.00;;;4.33;;
7181;SDS011;3632;42.724;23.298;2023-04-01T13:38:50;7.77;;;4.63;;
7181;SDS011;3632;42.724;23.298;2023-04-01T13:41:30;8.40;;;4.27;;
7181;SDS011;3632;42.724;23.298;2023-04-01T13:44:11;6.17;;;4.63;;
7181;SDS011;3632;42.724;23.298;2023-04-01T13:46:53;6.27;;;3.93;;
7181;SDS011;3632;42.724;23.298;2023-04-01T13:49:40;8.70;;;5.10;;
7181;SDS011;3632;42.724;23.298;2023-04-01T13:52:43;6.77;;;3.27;;
7181;SDS011;3632;42.724;23.298;2023-04-01T13:55:35;5.63;;;3.23;;
7181;SDS011;3632;42.724;23.298;2023-04-01T14:01:32;3.63;;;2.03;;
7181;SDS011;3632;42.724;23.298;2023-04-01T14:04:17;5.03;;;2.73;;
7181;SDS011;3632;42.724;23.298;2023-04-01T14:06:58;2.00;;;1.70;;
7181;SDS011;3632;42.724;23.298;2023-04-01T14:09:45;4.40;;;2.90;;
7181;SDS011;3632;42.724;23.298;2023-04-01T14:12:31;3.17;;;1.97;;
7181;SDS011;3632;42.724;23.298;2023-04-01T14:18:17;1.53;;;1.43;;
7181;SDS011;3632;42.724;23.298;2023-04-01T14:20:59;1.97;;;1.50;;
7181;SDS011;3632;42.724;23.298;2023-04-01T14:23:47;2.03;;;1.50;;
7181;SDS011;3632;42.724;23.298;2023-04-01T14:29:23;6.17;;;3.40;;
7181;SDS011;3632;42.724;23.298;2023-04-01T14:31:59;4.90;;;3.50;;
7181;SDS011;3632;42.724;23.298;2023-04-01T14:34:45;6.63;;;3.40;;
7181;SDS011;3632;42.724;23.298;2023-04-01T14:37:27;5.57;;;2.77;;
7181;SDS011;3632;42.724;23.298;2023-04-01T14:40:16;5.67;;;3.30;;
7181;SDS011;3632;42.724;23.298;2023-04-01T14:45:46;4.30;;;2.80;;
7181;SDS011;3632;42.724;23.298;2023-04-01T14:48:34;5.63;;;3.00;;
7181;SDS011;3632;42.724;23.298;2023-04-01T14:51:08;5.10;;;3.17;;
7181;SDS011;3632;42.724;23.298;2023-04-01T14:53:42;5.87;;;4.00;;
7181;SDS011;3632;42.724;23.298;2023-04-01T14:56:11;6.87;;;3.10;;
7181;SDS011;3632;42.724;23.298;2023-04-01T14:58:42;5.80;;;2.97;;
7181;SDS011;3632;42.724;23.298;2023-04-01T15:01:16;5.20;;;2.97;;
7181;SDS011;3632;42.724;23.298;2023-04-01T15:03:57;5.57;;;2.90;;
7181;SDS011;3632;42.724;23.298;2023-04-01T15:06:47;5.87;;;2.73;;
7181;SDS011;3632;42.724;23.298;2023-04-01T15:09:32;5.43;;;3.50;;
7181;SDS011;3632;42.724;23.298;2023-04-01T15:12:12;3.87;;;2.87;;
7181;SDS011;3632;42.724;23.298;2023-04-01T15:14:51;8.93;;;4.80;;
7181;SDS011;3632;42.724;23.298;2023-04-01T15:20:41;7.93;;;3.67;;
7181;SDS011;3632;42.724;23.298;2023-04-01T15:23:27;6.33;;;4.00;;
7181;SDS011;3632;42.724;23.298;2023-04-01T15:26:11;6.40;;;3.20;;
7181;SDS011;3632;42.724;23.298;2023-04-01T15:28:50;6.57;;;3.93;;
7181;SDS011;3632;42.724;23.298;2023-04-01T15:31:29;5.80;;;4.10;;
7181;SDS011;3632;42.724;23.298;2023-04-01T15:34:07;5.83;;;3.50;;
7181;SDS011;3632;42.724;23.298;2023-04-01T15:36:42;7.50;;;3.20;;
7181;SDS011;3632;42.724;23.298;2023-04-01T15:39:17;5.33;;;3.17;;
7181;SDS011;3632;42.724;23.298;2023-04-01T15:41:53;6.70;;;3.97;;
7181;SDS011;3632;42.724;23.298;2023-04-01T15:44:37;6.53;;;3.57;;
7181;SDS011;3632;42.724;23.298;2023-04-01T15:47:27;5.33;;;3.23;;
7181;SDS011;3632;42.724;23.298;2023-04-01T15:50:21;4.03;;;2.43;;
7181;SDS011;3632;42.724;23.298;2023-04-01T15:53:05;2.17;;;1.97;;
7181;SDS011;3632;42.724;23.298;2023-04-01T15:55:42;2.20;;;2.00;;
7181;SDS011;3632;42.724;23.298;2023-04-01T16:01:24;3.90;;;2.90;;
7181;SDS011;3632;42.724;23.298;2023-04-01T16:03:57;3.37;;;3.07;;
7181;SDS011;3632;42.724;23.298;2023-04-01T16:09:39;6.07;;;3.73;;
7181;SDS011;3632;42.724;23.298;2023-04-01T16:12:31;4.13;;;3.73;;
7181;SDS011;3632;42.724;23.298;2023-04-01T16:15:14;3.53;;;3.20;;
7181;SDS011;3632;42.724;23.298;2023-04-01T16:18:05;6.37;;;4.37;;
7181;SDS011;3632;42.724;23.298;2023-04-01T16:20:46;3.87;;;3.57;;
7181;SDS011;3632;42.724;23.298;2023-04-01T16:23:26;7.50;;;3.27;;
7181;SDS011;3632;42.724;23.298;2023-04-01T16:26:05;4.43;;;3.60;;
7181;SDS011;3632;42.724;23.298;2023-04-01T16:28:37;4.17;;;3.40;;
7181;SDS011;3632;42.724;23.298;2023-04-01T16:31:12;3.87;;;3.20;;
7181;SDS011;3632;42.724;23.298;2023-04-01T16:33:55;3.83;;;3.20;;
7181;SDS011;3632;42.724;23.298;2023-04-01T16:36:33;4.17;;;2.80;;
7181;SDS011;3632;42.724;23.298;2023-04-01T16:39:12;3.70;;;3.40;;
7181;SDS011;3632;42.724;23.298;2023-04-01T16:41:49;4.50;;;3.57;;
7181;SDS011;3632;42.724;23.298;2023-04-01T16:44:27;4.87;;;3.43;;
7181;SDS011;3632;42.724;23.298;2023-04-01T16:46:56;3.20;;;2.90;;
7181;SDS011;3632;42.724;23.298;2023-04-01T16:49:27;3.80;;;3.07;;
7181;SDS011;3632;42.724;23.298;2023-04-01T16:52:03;3.43;;;3.00;;
7181;SDS011;3632;42.724;23.298;2023-04-01T16:54:43;2.33;;;2.13;;
7181;SDS011;3632;42.724;23.298;2023-04-01T16:57:21;2.50;;;2.30;;
7181;SDS011;3632;42.724;23.298;2023-04-01T16:59:54;3.73;;;2.80;;
7181;SDS011;3632;42.724;23.298;2023-04-01T17:02:26;3.50;;;2.43;;
7181;SDS011;3632;42.724;23.298;2023-04-01T17:04:58;2.53;;;2.33;;
7181;SDS011;3632;42.724;23.298;2023-04-01T17:07:33;3.00;;;2.40;;
7181;SDS011;3632;42.724;23.298;2023-04-01T17:13:03;2.73;;;2.30;;
7181;SDS011;3632;42.724;23.298;2023-04-01T17:15:45;2.40;;;2.20;;
7181;SDS011;3632;42.724;23.298;2023-04-01T17:18:20;3.27;;;2.00;;
7181;SDS011;3632;42.724;23.298;2023-04-01T17:20:59;3.00;;;2.70;;
7181;SDS011;3632;42.724;23.298;2023-04-01T17:23:30;3.50;;;2.83;;
7181;SDS011;3632;42.724;23.298;2023-04-01T17:26:16;3.23;;;2.80;;
7181;SDS011;3632;42.724;23.298;2023-04-01T17:28:53;2.30;;;2.10;;
7181;SDS011;3632;42.724;23.298;2023-04-01T17:31:30;3.50;;;3.20;;
7181;SDS011;3632;42.724;23.298;2023-04-01T17:37:04;3.20;;;2.40;;
7181;SDS011;3632;42.724;23.298;2023-04-01T17:39:45;1.93;;;1.83;;
7181;SDS011;3632;42.724;23.298;2023-04-01T17:42:26;2.23;;;2.03;;
7181;SDS011;3632;42.724;23.298;2023-04-01T17:45:04;3.67;;;2.67;;
7181;SDS011;3632;42.724;23.298;2023-04-01T17:47:41;2.73;;;2.40;;